createdAt,value
2023-01-25T00:01:08.513Z,3.34
2023-01-25T00:03:39.499Z,3.33
2023-01-25T00:06:11.721Z,3.32
2023-01-25T00:08:42.618Z,3.32
2023-01-25T00:11:13.626Z,3.32
2023-01-25T00:13:44.631Z,3.32
2023-01-25T00:16:16.374Z,3.32
2023-01-25T00:18:47.373Z,3.31
2023-01-25T00:21:20.970Z,3.31
2023-01-25T00:23:52.643Z,3.28
2023-01-25T00:26:24.170Z,3.25
2023-01-25T00:28:56.739Z,3.24
2023-01-25T00:31:39.484Z,3.22
2023-01-25T00:34:48.556Z,3.20
2023-01-25T00:37:30.089Z,3.20
2023-01-25T00:40:01.803Z,3.18
2023-01-25T00:42:32.734Z,3.17
2023-01-25T00:45:03.686Z,3.17
2023-01-25T00:47:34.614Z,3.16
2023-01-25T00:50:10.534Z,3.14
2023-01-25T00:52:43.776Z,3.13
2023-01-25T00:55:14.860Z,3.12
2023-01-25T00:57:45.903Z,3.11
2023-01-25T01:00:18.067Z,3.09
2023-01-25T01:02:50.597Z,3.07
2023-01-25T01:05:21.548Z,3.06
2023-01-25T01:07:53.451Z,3.05
2023-01-25T01:10:24.388Z,3.01
2023-01-25T01:12:55.744Z,2.99
2023-01-25T01:15:26.838Z,2.98
2023-01-25T01:17:59.508Z,2.97
2023-01-25T01:20:31.455Z,2.97
2023-01-25T01:23:02.488Z,2.97
2023-01-25T01:25:33.605Z,2.97
2023-01-25T01:28:04.696Z,2.96
2023-01-25T01:30:35.594Z,2.97
2023-01-25T01:33:07.108Z,2.95
2023-01-25T01:35:38.086Z,2.93
2023-01-25T01:38:09.022Z,2.92
2023-01-25T01:40:45.553Z,2.90
2023-01-25T01:43:20.747Z,2.89
2023-01-25T01:45:55.026Z,2.88
2023-01-25T01:48:39.363Z,2.85
2023-01-25T01:51:20.764Z,2.83
2023-01-25T01:53:55.847Z,2.80
2023-01-25T01:56:33.069Z,2.80
2023-01-25T01:59:08.008Z,2.79
2023-01-25T02:01:39.512Z,2.77
2023-01-25T02:04:12.368Z,2.75
2023-01-25T02:06:48.567Z,2.74
2023-01-25T02:09:23.877Z,2.73
2023-01-25T02:11:56.432Z,2.72
2023-01-25T02:14:29.367Z,2.72
2023-01-25T02:17:01.694Z,2.70
2023-01-25T02:19:45.180Z,2.67
2023-01-25T02:22:23.201Z,2.62
2023-01-25T02:25:02.418Z,2.59
2023-01-25T02:27:33.804Z,2.57
2023-01-25T02:30:05.710Z,2.56
2023-01-25T02:32:36.883Z,2.55
2023-01-25T02:35:15.950Z,2.55
2023-01-25T02:37:47.569Z,2.55
2023-01-25T02:40:19.773Z,2.55
2023-01-25T02:42:50.884Z,2.55
2023-01-25T02:45:29.810Z,2.54
2023-01-25T02:48:00.777Z,2.53
2023-01-25T02:50:31.744Z,2.52
2023-01-25T02:53:02.814Z,2.52
2023-01-25T02:55:33.856Z,2.50
2023-01-25T02:58:04.825Z,2.48
2023-01-25T03:00:37.654Z,2.45
2023-01-25T03:03:08.730Z,2.42
2023-01-25T03:05:39.663Z,2.39
2023-01-25T03:08:10.711Z,2.37
2023-01-25T03:10:41.666Z,2.37
2023-01-25T03:13:12.729Z,2.35
2023-01-25T03:15:44.072Z,2.35
2023-01-25T03:18:15.284Z,2.34
2023-01-25T03:20:46.250Z,2.33
2023-01-25T03:23:17.243Z,2.31
2023-01-25T03:25:50.543Z,2.31
2023-01-25T03:28:21.994Z,2.31
2023-01-25T03:30:56.780Z,2.30
2023-01-25T03:33:29.210Z,2.29
2023-01-25T03:36:00.755Z,2.28
2023-01-25T03:38:32.354Z,2.27
2023-01-25T03:41:04.889Z,2.25
2023-01-25T03:43:36.887Z,2.26
2023-01-25T03:46:08.192Z,2.25
2023-01-25T03:48:39.260Z,2.26
2023-01-25T03:51:10.397Z,2.26
2023-01-25T03:53:41.381Z,2.26
2023-01-25T03:56:20.522Z,2.27
2023-01-25T03:59:15.183Z,2.24
2023-01-25T04:01:47.091Z,2.19
2023-01-25T04:04:18.561Z,2.16
2023-01-25T04:06:50.016Z,2.14
2023-01-25T04:09:22.098Z,2.14
2023-01-25T04:11:55.339Z,2.14
2023-01-25T04:14:43.193Z,2.13
2023-01-25T04:17:15.803Z,2.09
2023-01-25T04:19:58.809Z,2.06
2023-01-25T04:22:33.008Z,2.06
2023-01-25T04:25:04.162Z,2.06
2023-01-25T04:27:36.034Z,2.05
2023-01-25T04:30:12.739Z,2.05
2023-01-25T04:32:44.170Z,2.03
2023-01-25T04:35:28.419Z,2.01
2023-01-25T04:38:00.893Z,1.99
2023-01-25T04:40:38.915Z,1.98
2023-01-25T04:43:11.008Z,1.97
2023-01-25T04:45:42.098Z,1.93
2023-01-25T04:48:17.853Z,1.91
2023-01-25T04:50:53.423Z,1.90
2023-01-25T04:53:25.669Z,1.89
2023-01-25T04:55:57.080Z,1.89
2023-01-25T04:58:28.293Z,1.89
2023-01-25T05:01:03.057Z,1.87
2023-01-25T05:03:34.941Z,1.85
2023-01-25T05:06:07.694Z,1.84
2023-01-25T05:08:39.292Z,1.83
2023-01-25T05:11:10.393Z,1.81
2023-01-25T05:13:48.363Z,1.79
2023-01-25T05:16:28.977Z,1.77
2023-01-25T05:19:00.266Z,1.72
2023-01-25T05:22:00.549Z,1.66
2023-01-25T05:24:41.795Z,1.58
2023-01-25T05:27:17.058Z,1.50
2023-01-25T05:30:00.432Z,1.43
2023-01-25T05:32:41.120Z,1.40
2023-01-25T05:35:14.033Z,1.38
2023-01-25T05:37:45.262Z,1.37
2023-01-25T05:40:21.749Z,1.36
2023-01-25T05:42:58.518Z,1.34
2023-01-25T05:45:31.191Z,1.31
2023-01-25T05:48:02.354Z,1.28
2023-01-25T05:50:34.198Z,1.26
2023-01-25T05:53:08.794Z,1.23
2023-01-25T05:55:40.967Z,1.22
2023-01-25T05:58:14.257Z,1.21
2023-01-25T06:00:45.631Z,1.20
2023-01-25T06:03:20.956Z,1.18
2023-01-25T06:05:57.867Z,1.18
2023-01-25T06:08:28.892Z,1.18
2023-01-25T06:11:00.760Z,1.17
2023-01-25T06:13:31.665Z,1.18
2023-01-25T06:16:03.360Z,1.19
2023-01-25T06:18:59.467Z,1.22
2023-01-25T06:21:49.150Z,1.25
2023-01-25T06:24:20.114Z,1.27
2023-01-25T06:26:51.219Z,1.27
2023-01-25T06:29:22.136Z,1.25
2023-01-25T06:31:53.303Z,1.27
2023-01-25T06:34:25.231Z,1.26
2023-01-25T06:36:57.033Z,1.23
2023-01-25T06:39:29.872Z,1.22
2023-01-25T06:42:00.897Z,1.23
2023-01-25T06:44:31.910Z,1.26
2023-01-25T06:47:03.286Z,1.27
2023-01-25T06:49:34.332Z,1.28
2023-01-25T06:52:05.589Z,1.30
2023-01-25T06:54:36.676Z,1.31
2023-01-25T06:57:10.465Z,1.33
2023-01-25T06:59:41.437Z,1.35
2023-01-25T07:02:17.229Z,1.38
2023-01-25T07:04:48.914Z,1.38
2023-01-25T07:07:20.584Z,1.35
2023-01-25T07:09:52.074Z,1.35
2023-01-25T07:12:23.012Z,1.34
2023-01-25T07:14:55.221Z,1.34
2023-01-25T07:17:26.264Z,1.37
2023-01-25T07:19:57.497Z,1.39
2023-01-25T07:22:28.644Z,1.39
2023-01-25T07:25:00.151Z,1.40
2023-01-25T07:27:33.951Z,1.41
2023-01-25T07:30:05.251Z,1.42
2023-01-25T07:32:36.187Z,1.44
2023-01-25T07:35:08.531Z,1.46
2023-01-25T07:37:39.899Z,1.47
2023-01-25T07:40:15.386Z,1.49
2023-01-25T07:42:47.490Z,1.50
2023-01-25T07:45:20.803Z,1.50
2023-01-25T07:47:51.995Z,1.51
2023-01-25T07:50:22.905Z,1.52
2023-01-25T07:52:54.077Z,1.51
2023-01-25T07:55:25.185Z,1.52
2023-01-25T07:57:58.455Z,1.51
2023-01-25T08:00:29.415Z,1.50
2023-01-25T08:03:00.366Z,1.49
2023-01-25T08:05:31.687Z,1.46
2023-01-25T08:08:02.780Z,1.45
2023-01-25T08:10:33.682Z,1.43
2023-01-25T08:13:04.624Z,1.42
2023-01-25T08:15:35.817Z,1.42
2023-01-25T08:18:07.100Z,1.44
2023-01-25T08:20:39.047Z,1.45
2023-01-25T08:23:10.105Z,1.46
2023-01-25T08:25:41.482Z,1.46
2023-01-25T08:28:12.501Z,1.46
2023-01-25T08:30:56.460Z,1.45
2023-01-25T08:33:28.174Z,1.45
2023-01-25T08:35:59.661Z,1.48
2023-01-25T08:38:30.699Z,1.51
2023-01-25T08:41:09.195Z,1.53
2023-01-25T08:43:40.553Z,1.54
2023-01-25T08:46:12.759Z,1.53
2023-01-25T08:48:44.615Z,1.53
2023-01-25T08:51:17.177Z,1.55
2023-01-25T08:53:48.233Z,1.57
2023-01-25T08:56:22.922Z,1.59
2023-01-25T08:58:54.040Z,1.62
2023-01-25T09:01:25.097Z,1.64
2023-01-25T09:03:57.042Z,1.65
2023-01-25T09:06:28.244Z,1.63
2023-01-25T09:08:59.500Z,1.61
2023-01-25T09:11:30.552Z,1.59
2023-01-25T09:14:01.587Z,1.60
2023-01-25T09:16:32.531Z,1.63
2023-01-25T09:19:05.480Z,1.64
2023-01-25T09:21:37.408Z,1.63
2023-01-25T09:24:09.186Z,1.62
2023-01-25T09:26:46.013Z,1.61
2023-01-25T09:29:20.996Z,1.59
2023-01-25T09:31:52.518Z,1.60
2023-01-25T09:34:37.812Z,1.62
2023-01-25T09:37:08.773Z,1.63
2023-01-25T09:39:39.784Z,1.63
2023-01-25T09:42:41.077Z,1.62
2023-01-25T09:45:30.539Z,1.62
2023-01-25T09:48:12.152Z,1.61
2023-01-25T09:51:02.550Z,1.59
2023-01-25T09:53:39.372Z,1.61
2023-01-25T09:56:18.858Z,1.64
2023-01-25T09:58:53.389Z,1.67
2023-01-25T10:01:39.234Z,1.70
2023-01-25T10:04:18.215Z,1.72
2023-01-25T10:07:00.619Z,1.77
2023-01-25T10:09:38.723Z,1.82
2023-01-25T10:12:19.936Z,1.84
2023-01-25T10:14:51.895Z,1.85
2023-01-25T10:17:28.880Z,1.89
2023-01-25T10:20:26.051Z,1.90
2023-01-25T10:23:13.051Z,1.90
2023-01-25T10:25:48.002Z,1.91
2023-01-25T10:28:34.564Z,1.94
2023-01-25T10:31:08.480Z,1.97
2023-01-25T10:33:48.607Z,2.00
2023-01-25T10:36:23.143Z,2.04
2023-01-25T10:38:59.303Z,2.07
2023-01-25T10:41:37.903Z,2.10
2023-01-25T10:44:25.187Z,2.12
2023-01-25T10:47:07.406Z,2.15
2023-01-25T10:49:44.113Z,2.16
2023-01-25T10:52:20.469Z,2.18
2023-01-25T10:55:10.015Z,2.19
2023-01-25T10:57:44.367Z,2.19
2023-01-25T11:00:30.710Z,2.17
2023-01-25T11:03:02.257Z,2.18
2023-01-25T11:05:36.289Z,2.17
2023-01-25T11:08:26.113Z,2.16
2023-01-25T11:10:58.464Z,2.13
2023-01-25T11:13:31.036Z,2.08
2023-01-25T11:16:22.003Z,2.05
2023-01-25T11:18:57.542Z,2.01
2023-01-25T11:21:30.381Z,1.98
2023-01-25T11:24:19.214Z,1.98
2023-01-25T11:26:50.287Z,2.00
2023-01-25T11:29:24.342Z,2.02
2023-01-25T11:31:59.099Z,2.02
2023-01-25T11:34:31.452Z,2.02
2023-01-25T11:37:19.159Z,2.03
2023-01-25T11:39:58.657Z,2.06
2023-01-25T11:42:43.574Z,2.07
2023-01-25T11:45:39.670Z,2.09
2023-01-25T11:48:25.508Z,2.10
2023-01-25T11:51:07.432Z,2.12
2023-01-25T11:53:51.613Z,2.12
2023-01-25T11:56:35.390Z,2.11
2023-01-25T11:59:21.145Z,2.11
2023-01-25T12:02:10.170Z,2.11
2023-01-25T12:04:57.754Z,2.12
2023-01-25T12:07:42.110Z,2.11
2023-01-25T12:10:25.898Z,2.08
2023-01-25T12:13:04.152Z,2.08
2023-01-25T12:15:58.144Z,2.07
2023-01-25T12:18:50.840Z,2.05
2023-01-25T12:21:36.778Z,2.04
2023-01-25T12:24:27.143Z,2.03
2023-01-25T12:27:11.011Z,2.01
2023-01-25T12:29:46.316Z,2.02
2023-01-25T12:32:28.463Z,2.05
2023-01-25T12:35:18.297Z,2.05
2023-01-25T12:37:51.133Z,2.06
2023-01-25T12:40:31.301Z,2.10
2023-01-25T12:43:02.913Z,2.11
2023-01-25T12:45:38.958Z,2.13
2023-01-25T12:48:20.263Z,2.14
2023-01-25T12:50:56.248Z,2.14
2023-01-25T12:53:32.621Z,2.13
2023-01-25T12:56:06.236Z,2.12
2023-01-25T12:58:45.098Z,2.15
2023-01-25T13:01:25.398Z,2.16
2023-01-25T13:04:12.104Z,2.18
2023-01-25T13:06:53.302Z,2.19
2023-01-25T13:09:31.297Z,2.19
2023-01-25T13:12:05.736Z,2.19
2023-01-25T13:14:40.751Z,2.21
2023-01-25T13:17:24.019Z,2.24
2023-01-25T13:19:55.106Z,2.25
2023-01-25T13:23:01.872Z,2.28
2023-01-25T13:25:33.099Z,2.32
2023-01-25T13:28:34.699Z,2.35
2023-01-25T13:31:06.113Z,2.38
2023-01-25T13:33:38.085Z,2.39
2023-01-25T13:36:40.283Z,2.42
2023-01-25T13:39:45.473Z,2.43
2023-01-25T13:42:27.817Z,2.46
2023-01-25T13:45:04.183Z,2.45
2023-01-25T13:47:38.231Z,2.44
2023-01-25T13:50:23.690Z,2.45
2023-01-25T13:53:01.979Z,2.45
2023-01-25T13:55:41.876Z,2.45
2023-01-25T13:58:18.355Z,2.44
2023-01-25T14:00:55.620Z,2.44
2023-01-25T14:03:29.452Z,2.42
2023-01-25T14:06:02.792Z,2.40
2023-01-25T14:08:34.878Z,2.38
2023-01-25T14:11:06.417Z,2.37
2023-01-25T14:13:37.411Z,2.36
2023-01-25T14:16:13.372Z,2.31
2023-01-25T14:18:45.394Z,2.27
2023-01-25T14:21:20.414Z,2.22
2023-01-25T14:23:53.646Z,2.16
2023-01-25T14:26:29.128Z,2.12
2023-01-25T14:29:02.606Z,2.11
2023-01-25T14:31:37.757Z,2.11
2023-01-25T14:34:16.732Z,2.12
2023-01-25T14:36:47.727Z,2.15
2023-01-25T14:39:29.263Z,2.16
2023-01-25T14:42:02.021Z,2.16
2023-01-25T14:44:34.589Z,2.16
2023-01-25T14:47:29.904Z,2.14
2023-01-25T14:50:37.575Z,2.11
2023-01-25T14:53:18.998Z,2.10
2023-01-25T14:55:52.196Z,2.08
2023-01-25T14:58:29.168Z,2.06
2023-01-25T15:01:02.900Z,2.05
2023-01-25T15:03:34.230Z,2.03
2023-01-25T15:06:07.372Z,1.99
2023-01-25T15:08:41.179Z,1.98
2023-01-25T15:11:38.921Z,1.96
2023-01-25T15:14:20.123Z,1.92
2023-01-25T15:16:51.206Z,1.89
2023-01-25T15:19:28.923Z,1.86
2023-01-25T15:22:01.288Z,1.82
2023-01-25T15:24:32.245Z,1.77
2023-01-25T15:27:03.902Z,1.75
2023-01-25T15:29:34.881Z,1.72
2023-01-25T15:32:06.396Z,1.70
2023-01-25T15:34:37.300Z,1.69
2023-01-25T15:37:09.696Z,1.68
2023-01-25T15:39:40.697Z,1.68
2023-01-25T15:42:12.059Z,1.71
2023-01-25T15:44:43.147Z,1.69
2023-01-25T15:47:14.601Z,1.67
2023-01-25T15:49:45.530Z,1.66
2023-01-25T15:52:16.658Z,1.66
2023-01-25T15:54:55.955Z,1.68
2023-01-25T15:57:35.833Z,1.69
2023-01-25T16:00:09.244Z,1.69
2023-01-25T16:02:40.424Z,1.67
2023-01-25T16:05:11.991Z,1.66
2023-01-25T16:07:45.164Z,1.66
2023-01-25T16:10:24.777Z,1.67
2023-01-25T16:12:55.800Z,1.66
2023-01-25T16:15:27.512Z,1.64
2023-01-25T16:17:58.557Z,1.62
2023-01-25T16:20:30.054Z,1.58
2023-01-25T16:23:01.415Z,1.54
2023-01-25T16:25:32.448Z,1.50
2023-01-25T16:28:03.552Z,1.49
2023-01-25T16:30:34.675Z,1.49
2023-01-25T16:33:06.925Z,1.49
2023-01-25T16:35:37.873Z,1.51
2023-01-25T16:38:11.692Z,1.52
2023-01-25T16:40:42.682Z,1.55
2023-01-25T16:43:14.354Z,1.56
2023-01-25T16:45:45.274Z,1.58
2023-01-25T16:48:16.991Z,1.60
2023-01-25T16:50:50.449Z,1.60
2023-01-25T16:53:21.841Z,1.61
2023-01-25T16:55:52.778Z,1.62
2023-01-25T16:58:23.675Z,1.63
2023-01-25T17:00:54.626Z,1.65
2023-01-25T17:03:25.608Z,1.67
2023-01-25T17:05:56.672Z,1.68
2023-01-25T17:08:29.002Z,1.69
2023-01-25T17:11:03.747Z,1.71
2023-01-25T17:13:34.913Z,1.70
2023-01-25T17:16:06.661Z,1.69
2023-01-25T17:18:37.629Z,1.69
2023-01-25T17:21:09.417Z,1.69
2023-01-25T17:23:40.749Z,1.68
2023-01-25T17:26:14.544Z,1.69
2023-01-25T17:28:46.572Z,1.71
2023-01-25T17:31:20.744Z,1.72
2023-01-25T17:33:52.838Z,1.73
2023-01-25T17:36:24.299Z,1.73
2023-01-25T17:38:55.800Z,1.74
2023-01-25T17:41:26.697Z,1.72
2023-01-25T17:43:57.977Z,1.69
2023-01-25T17:46:33.115Z,1.71
2023-01-25T17:49:07.206Z,1.72
2023-01-25T17:51:38.791Z,1.75
2023-01-25T17:54:10.939Z,1.77
2023-01-25T17:56:42.353Z,1.79
2023-01-25T17:59:13.348Z,1.81
2023-01-25T18:01:44.420Z,1.82
2023-01-25T18:04:17.765Z,1.82
2023-01-25T18:06:49.157Z,1.82
2023-01-25T18:09:23.877Z,1.83
2023-01-25T18:11:54.772Z,1.84
2023-01-25T18:14:25.823Z,1.85
2023-01-25T18:16:57.090Z,1.86
2023-01-25T18:19:31.987Z,1.87
2023-01-25T18:22:02.958Z,1.87
2023-01-25T18:24:35.502Z,1.88
2023-01-25T18:27:22.976Z,1.88
2023-01-25T18:30:03.107Z,1.88
2023-01-25T18:32:34.116Z,1.89
2023-01-25T18:35:05.569Z,1.90
2023-01-25T18:37:43.684Z,1.90
2023-01-25T18:40:17.680Z,1.88
2023-01-25T18:42:49.589Z,1.88
2023-01-25T18:45:21.319Z,1.89
2023-01-25T18:47:52.379Z,1.91
2023-01-25T18:50:23.821Z,1.91
2023-01-25T18:52:55.813Z,1.92
2023-01-25T18:55:27.830Z,1.93
2023-01-25T18:58:04.127Z,1.96
2023-01-25T19:00:36.077Z,1.97
2023-01-25T19:03:07.222Z,1.96
2023-01-25T19:05:38.354Z,1.97
2023-01-25T19:08:09.700Z,1.98
2023-01-25T19:10:40.842Z,1.97
2023-01-25T19:13:12.021Z,1.97
2023-01-25T19:15:43.575Z,1.97
2023-01-25T19:18:15.117Z,1.97
2023-01-25T19:20:47.168Z,1.94
2023-01-25T19:23:18.422Z,1.91
2023-01-25T19:25:56.118Z,1.88
2023-01-25T19:28:27.512Z,1.85
2023-01-25T19:30:59.094Z,1.80
2023-01-25T19:33:30.486Z,1.75
2023-01-25T19:36:06.683Z,1.69
2023-01-25T19:38:41.419Z,1.63
2023-01-25T19:41:14.216Z,1.58
2023-01-25T19:43:45.507Z,1.57
2023-01-25T19:46:20.193Z,1.58
2023-01-25T19:48:53.166Z,1.59
2023-01-25T19:51:26.303Z,1.60
2023-01-25T19:54:00.290Z,1.63
2023-01-25T19:56:34.351Z,1.64
2023-01-25T19:59:07.387Z,1.62
2023-01-25T20:01:43.964Z,1.61
2023-01-25T20:04:17.013Z,1.62
2023-01-25T20:06:49.196Z,1.61
2023-01-25T20:09:28.138Z,1.58
2023-01-25T20:12:00.878Z,1.55
2023-01-25T20:14:32.020Z,1.53
2023-01-25T20:17:03.356Z,1.50
2023-01-25T20:19:35.284Z,1.50
2023-01-25T20:22:07.092Z,1.50
2023-01-25T20:24:38.187Z,1.48
2023-01-25T20:27:09.476Z,1.48
2023-01-25T20:29:41.363Z,1.50
2023-01-25T20:32:26.686Z,1.51
2023-01-25T20:35:06.116Z,1.55
2023-01-25T20:37:37.648Z,1.56
2023-01-25T20:40:12.524Z,1.55
2023-01-25T20:42:43.590Z,1.54
2023-01-25T20:45:17.290Z,1.54
2023-01-25T20:47:48.571Z,1.54
2023-01-25T20:50:20.399Z,1.53
2023-01-25T20:52:52.573Z,1.53
2023-01-25T20:55:23.597Z,1.54
2023-01-25T20:57:54.659Z,1.55
2023-01-25T21:00:26.993Z,1.54
2023-01-25T21:02:58.274Z,1.55
2023-01-25T21:05:29.524Z,1.58
2023-01-25T21:08:00.534Z,1.61
2023-01-25T21:10:31.610Z,1.66
2023-01-25T21:13:02.859Z,1.69
2023-01-25T21:15:33.901Z,1.74
2023-01-25T21:18:05.090Z,1.78
2023-01-25T21:20:36.631Z,1.80
2023-01-25T21:23:07.567Z,1.83
2023-01-25T21:25:38.744Z,1.86
2023-01-25T21:28:10.039Z,1.89
2023-01-25T21:30:41.138Z,1.92
2023-01-25T21:33:13.040Z,1.93
2023-01-25T21:35:44.286Z,1.94
2023-01-25T21:38:15.368Z,1.94
2023-01-25T21:40:46.581Z,1.94
2023-01-25T21:43:18.390Z,1.92
2023-01-25T21:46:07.199Z,1.91
2023-01-25T21:48:56.126Z,1.90
2023-01-25T21:51:36.616Z,1.91
2023-01-25T21:54:08.183Z,1.92
2023-01-25T21:56:39.125Z,1.91
2023-01-25T21:59:10.319Z,1.90
2023-01-25T22:01:43.131Z,1.92
2023-01-25T22:04:17.175Z,1.91
2023-01-25T22:06:50.659Z,1.91
2023-01-25T22:09:21.838Z,1.91
2023-01-25T22:11:54.293Z,1.93
2023-01-25T22:14:25.998Z,1.96
2023-01-25T22:16:58.119Z,2.00
2023-01-25T22:19:29.666Z,2.03
2023-01-25T22:22:00.658Z,2.05
2023-01-25T22:24:31.798Z,2.01
2023-01-25T22:27:26.956Z,1.99
2023-01-25T22:29:58.072Z,1.94
2023-01-25T22:32:29.352Z,1.90
2023-01-25T22:35:00.295Z,1.88
2023-01-25T22:37:31.474Z,1.86
2023-01-25T22:40:02.346Z,1.84
2023-01-25T22:42:33.214Z,1.83
2023-01-25T22:45:04.294Z,1.85
2023-01-25T22:47:35.411Z,1.86
2023-01-25T22:50:07.587Z,1.89
2023-01-25T22:52:38.756Z,1.90
2023-01-25T22:55:10.921Z,1.92
2023-01-25T22:57:42.171Z,1.93
2023-01-25T23:00:15.442Z,1.95
2023-01-25T23:02:46.394Z,1.97
2023-01-25T23:05:17.528Z,2.00
2023-01-25T23:07:48.819Z,2.01
2023-01-25T23:10:20.200Z,2.01
2023-01-25T23:12:51.213Z,2.01
2023-01-25T23:15:22.212Z,2.00
2023-01-25T23:18:13.127Z,1.98
2023-01-25T23:20:44.628Z,1.99
2023-01-25T23:23:15.876Z,1.99
2023-01-25T23:25:48.878Z,1.96
2023-01-25T23:28:19.938Z,1.95
2023-01-25T23:30:51.239Z,1.95
2023-01-25T23:33:22.327Z,1.93
2023-01-25T23:35:53.436Z,1.91
2023-01-25T23:38:24.533Z,1.93
2023-01-25T23:40:55.436Z,1.96
2023-01-25T23:43:26.410Z,1.98
2023-01-25T23:45:57.362Z,1.97
2023-01-25T23:48:28.477Z,1.95
2023-01-25T23:50:59.581Z,1.94
2023-01-25T23:53:32.179Z,1.93
2023-01-25T23:56:06.324Z,1.92
2023-01-25T23:58:38.299Z,1.91
